Time;durP1;ratioP1;P1;durP2;ratioP2;P2;SDS_P1;SDS_P2;PMS_P1;PMS_P2;Temp;Humidity;BMP_temperature;BMP_pressure;BME280_temperature;BME280_humidity;BME280_pressure;Samples;Min_cycle;Max_cycle;Signal;HPM_P1;HPM_P2
2022/10/09 09:00:45;;;;;;;;;;;;;;;15.92;63.53;102087.03;1196250;23;1210833;-71
2022/10/09 09:01:35;;;;;;;;;;;;;;;15.90;63.44;102080.91;1250145;23;621;-71
2022/10/09 09:02:26;;;;;;;;;;;;;;;15.90;63.44;102084.44;1249483;23;692;-70
2022/10/09 09:03:16;;;;;;;;;;;;;;;15.89;63.59;102087.22;1250467;23;661;-71
2022/10/09 09:04:07;;;;;;;;;;;;;;;15.90;63.38;102083.59;1250371;23;637;-71
2022/10/09 09:04:57;;;;;;;;;;;;;;;15.92;63.38;102085.22;1250664;23;625;-70
2022/10/09 09:05:48;;;;;;;;;;;;;;;15.91;63.50;102085.31;1247380;23;680;-71
2022/10/09 09:06:38;;;;;;;;;;;;;;;15.91;63.51;102074.56;1248847;23;708;-70
2022/10/09 09:07:29;;;;;;;;;;;;;;;15.89;63.17;102079.16;1250478;23;653;-70
2022/10/09 09:08:19;;;;;;;;;;;;;;;15.82;63.22;102084.09;1250353;23;755;-70
2022/10/09 09:09:10;;;;;;;;;;;;;;;15.87;63.48;102070.34;1250337;23;625;-70
2022/10/09 09:10:00;;;;;;;;;;;;;;;15.89;63.13;102073.78;1250334;23;617;-70
2022/10/09 09:10:51;;;;;;;;;;;;;;;15.90;63.01;102080.91;1247394;23;622;-71
2022/10/09 09:11:41;;;;;;;;;;;;;;;15.89;63.31;102071.97;1250556;23;648;-70
2022/10/09 09:12:33;;;;;;;;;;;;;;;15.88;63.64;102072.06;1247255;23;641;-71
2022/10/09 09:13:23;;;;;;;;;;;;;;;15.89;63.69;102071.97;1249685;23;610;-70
2022/10/09 09:14:14;;;;;;;;;;;;;;;15.88;63.96;102072.06;1247347;23;1947;-70
2022/10/09 09:15:04;;;;;;;;;;;;;;;15.90;63.37;102064.75;1246380;23;614;-70
2022/10/09 09:15:54;;;;;;;;;;;;;;;15.91;63.23;102071.88;1250422;23;625;-70
2022/10/09 09:16:45;;;;;;;;;;;;;;;15.91;63.24;102075.41;1250451;23;613;-71
2022/10/09 09:17:35;;;;;;;;;;;;;;;15.92;63.35;102070.91;1247291;23;712;-71
2022/10/09 09:18:26;;;;;;;;;;;;;;;15.91;63.22;102070.03;1247370;23;680;-71
2022/10/09 09:19:16;;;;;;;;;;;;;;;15.92;63.59;102066.38;1250458;23;646;-70
2022/10/09 09:20:06;;;;;;;;;;;;;;;15.93;63.51;102065.41;1250374;23;704;-70
2022/10/09 09:20:57;;;;;;;;;;;;;;;15.94;63.32;102063.59;1250540;23;622;-70
2022/10/09 09:21:47;;;;;;;;;;;;;;;15.95;63.34;102065.28;1250395;23;625;-70
2022/10/09 09:22:38;;;;;;;;;;;;;;;15.94;63.15;102069.81;1247453;23;661;-70
2022/10/09 09:23:28;;;;;;;;;;;;;;;15.91;63.46;102070.03;1250517;23;633;-70
2022/10/09 09:24:19;;;;;;;;;;;;;;;15.93;63.35;102057.34;1250372;23;610;-70
2022/10/09 09:25:12;;;;;;;;;;;;;;;15.94;63.53;102064.44;1250316;23;605;-70
2022/10/09 09:26:02;;;;;;;;;;;;;;;15.93;63.45;102059.19;1249638;23;909;-70
2022/10/09 09:26:53;;;;;;;;;;;;;;;15.95;62.83;102065.28;1247497;23;685;-70
2022/10/09 09:27:43;;;;;;;;;;;;;;;15.95;63.28;102057.22;1250327;23;701;-71
2022/10/09 09:28:34;;;;;;;;;;;;;;;15.96;63.25;102061.63;1250413;23;630;-71
2022/10/09 09:29:24;;;;;;;;;;;;;;;15.97;63.26;102057.97;1250050;23;634;-71
2022/10/09 09:30:15;;;;;;;;;;;;;;;15.97;63.23;102057.97;1250522;23;656;-71
2022/10/09 09:31:05;;;;;;;;;;;;;;;15.97;63.27;102061.53;1248847;23;661;-71
2022/10/09 09:31:56;;;;;;;;;;;;;;;15.96;63.59;102058.94;1247390;23;692;-71
2022/10/09 09:32:46;;;;;;;;;;;;;;;16.00;62.78;102056.91;1250559;23;657;-71
2022/10/09 09:33:36;;;;;;;;;;;;;;;15.99;62.87;102061.44;1250522;23;665;-71
2022/10/09 09:34:27;;;;;;;;;;;;;;;15.98;63.27;102057.03;1250511;23;1882;-71
2022/10/09 09:35:18;;;;;;;;;;;;;;;16.00;63.34;102056.91;1247334;23;694;-72
2022/10/09 09:36:08;;;;;;;;;;;;;;;16.00;63.22;102063.16;1250469;23;653;-71
2022/10/09 09:36:58;;;;;;;;;;;;;;;16.01;63.16;102054.13;1250353;23;660;-71
2022/10/09 09:37:49;;;;;;;;;;;;;;;16.01;63.16;102053.25;1250292;23;658;-71
2022/10/09 09:38:39;;;;;;;;;;;;;;;16.01;62.94;102059.50;1250330;23;681;-71
2022/10/09 09:39:30;;;;;;;;;;;;;;;15.97;63.01;102057.97;1247415;23;737;-71
2022/10/09 09:40:20;;;;;;;;;;;;;;;16.00;63.41;102049.72;1250431;23;783;-71
2022/10/09 09:41:11;;;;;;;;;;;;;;;16.01;63.09;102050.56;1250359;23;665;-71
2022/10/09 09:42:01;;;;;;;;;;;;;;;16.01;62.83;102048.75;1250412;23;626;-71
2022/10/09 09:42:55;;;;;;;;;;;;;;;16.01;63.11;102051.44;1250385;23;601;-71
2022/10/09 09:43:46;;;;;;;;;;;;;;;16.00;63.15;102049.72;1248335;23;676;-70
2022/10/09 09:44:36;;;;;;;;;;;;;;;16.02;62.74;102045.09;1250450;23;573;-70
2022/10/09 09:45:27;;;;;;;;;;;;;;;16.03;62.99;102041.44;1247266;23;688;-70
2022/10/09 09:46:17;;;;;;;;;;;;;;;16.04;63.16;102040.47;1250396;23;745;-70
2022/10/09 09:47:08;;;;;;;;;;;;;;;16.04;63.37;102043.16;1250496;23;645;-70
2022/10/09 09:47:58;;;;;;;;;;;;;;;16.05;62.82;102039.50;1250575;23;661;-70
2022/10/09 09:48:48;;;;;;;;;;;;;;;16.00;62.50;102044.34;1247169;23;621;-71
2022/10/09 09:49:39;;;;;;;;;;;;;;;16.01;62.92;102043.38;1247434;23;618;-70
2022/10/09 09:50:29;;;;;;;;;;;;;;;16.02;62.98;102049.63;1247022;23;661;-69
2022/10/09 09:51:20;;;;;;;;;;;;;;;16.03;63.28;102044.13;1248689;23;626;-69
2022/10/09 09:52:12;;;;;;;;;;;;;;;16.05;62.94;102033.28;1250249;23;672;-70
2022/10/09 09:53:02;;;;;;;;;;;;;;;16.05;63.40;102039.50;1248876;23;649;-70
2022/10/09 09:53:53;;;;;;;;;;;;;;;16.04;63.40;102037.78;1250246;23;641;-70
2022/10/09 09:54:44;;;;;;;;;;;;;;;16.06;63.09;102032.31;1246819;23;670;-70
2022/10/09 09:55:34;;;;;;;;;;;;;;;16.04;62.97;102029.72;1249207;23;677;-70
2022/10/09 09:56:25;;;;;;;;;;;;;;;16.06;62.88;102035.84;1249615;23;705;-70
2022/10/09 09:57:15;;;;;;;;;;;;;;;16.07;62.61;102028.66;1247010;23;669;-70
2022/10/09 09:58:06;;;;;;;;;;;;;;;16.08;62.86;102033.94;1250312;23;597;-70
2022/10/09 09:58:56;;;;;;;;;;;;;;;16.09;63.24;102034.78;1246931;23;619;-70
2022/10/09 09:59:46;;;;;;;;;;;;;;;16.07;62.76;102024.13;1247066;23;681;-70
2022/10/09 10:00:37;;;;;;;;;;;;;;;16.07;62.66;102020.59;1251279;23;1131;-71
2022/10/09 10:01:27;;;;;;;;;;;;;;;16.05;63.15;102023.38;1256349;23;666;-70
2022/10/09 10:02:18;;;;;;;;;;;;;;;16.06;62.62;102025.09;1256143;23;645;-70
2022/10/09 10:03:08;;;;;;;;;;;;;;;16.04;62.85;102027.03;1253643;23;638;-70
2022/10/09 10:03:58;;;;;;;;;;;;;;;16.02;63.40;102028.97;1256232;23;650;-70
2022/10/09 10:04:49;;;;;;;;;;;;;;;16.04;63.45;102021.66;1256144;23;606;-70
2022/10/09 10:05:40;;;;;;;;;;;;;;;16.03;63.28;102017.25;1255446;23;602;-70
2022/10/09 10:06:30;;;;;;;;;;;;;;;16.05;62.69;102015.31;1256295;23;754;-70
2022/10/09 10:07:21;;;;;;;;;;;;;;;16.05;63.34;102014.44;1247527;23;799;-70
2022/10/09 10:08:11;;;;;;;;;;;;;;;16.07;63.07;102016.06;1248203;23;614;-70
2022/10/09 10:09:02;;;;;;;;;;;;;;;16.10;62.86;102021.25;1255236;23;645;-70
2022/10/09 10:09:52;;;;;;;;;;;;;;;16.10;63.15;102015.88;1256309;23;649;-70
2022/10/09 10:10:43;;;;;;;;;;;;;;;16.09;62.64;102013.28;1256216;23;692;-70
2022/10/09 10:11:34;;;;;;;;;;;;;;;16.07;62.87;102016.06;1256377;23;601;-70
2022/10/09 10:12:24;;;;;;;;;;;;;;;16.06;62.90;102016.19;1255392;23;634;-70
2022/10/09 10:13:15;;;;;;;;;;;;;;;16.10;62.70;102012.31;1256111;23;621;-71
2022/10/09 10:14:05;;;;;;;;;;;;;;;16.12;62.98;102019.28;1256235;23;626;-71
2022/10/09 10:14:56;;;;;;;;;;;;;;;16.10;62.11;102005.09;1256052;23;665;-71
2022/10/09 10:15:46;;;;;;;;;;;;;;;16.12;62.52;102011.22;1256300;23;614;-71
2022/10/09 10:16:37;;;;;;;;;;;;;;;16.10;62.66;102017.69;1256265;23;633;-71
2022/10/09 10:17:28;;;;;;;;;;;;;;;16.14;62.92;102014.66;1253639;23;650;-70
2022/10/09 10:18:18;;;;;;;;;;;;;;;16.10;62.03;102015.88;1255450;23;653;-70
2022/10/09 10:19:08;;;;;;;;;;;;;;;16.01;61.50;102016.47;1256352;23;598;-70
2022/10/09 10:19:59;;;;;;;;;;;;;;;16.04;62.32;102015.41;1256199;23;626;-70
2022/10/09 10:20:49;;;;;;;;;;;;;;;16.05;62.83;102012.63;1256269;23;602;-71
2022/10/09 10:21:40;;;;;;;;;;;;;;;16.10;62.74;102005.09;1256239;23;668;-71
2022/10/09 10:22:31;;;;;;;;;;;;;;;16.15;62.51;102010.13;1255372;23;688;-71
2022/10/09 10:23:21;;;;;;;;;;;;;;;16.13;62.77;102010.25;1256238;23;598;-71
2022/10/09 10:24:12;;;;;;;;;;;;;;;16.12;62.08;102003.13;1254755;23;866;-71
2022/10/09 10:25:02;;;;;;;;;;;;;;;16.15;62.25;101997.56;1256276;23;673;-71
2022/10/09 10:25:53;;;;;;;;;;;;;;;16.14;62.45;102001.22;1256203;23;676;-71
2022/10/09 10:26:43;;;;;;;;;;;;;;;16.17;62.45;102005.53;1256226;23;613;-71
2022/10/09 10:27:33;;;;;;;;;;;;;;;16.16;62.15;102004.66;1255603;23;589;-71
2022/10/09 10:28:24;;;;;;;;;;;;;;;16.16;62.24;102001.97;1256246;23;614;-71
2022/10/09 10:29:14;;;;;;;;;;;;;;;16.17;63.00;101994.75;1256291;23;665;-70
2022/10/09 10:30:05;;;;;;;;;;;;;;;16.18;62.58;101996.47;1253957;23;670;-71
2022/10/09 10:30:56;;;;;;;;;;;;;;;16.19;62.38;101998.22;1256241;23;622;-71
2022/10/09 10:31:46;;;;;;;;;;;;;;;16.20;62.48;101994.56;1247288;23;586;-70
2022/10/09 10:32:37;;;;;;;;;;;;;;;16.19;62.38;101999.06;1249163;23;649;-71
2022/10/09 10:33:27;;;;;;;;;;;;;;;16.18;62.27;101991.09;1254570;23;661;-70
2022/10/09 10:34:17;;;;;;;;;;;;;;;16.18;62.33;101991.97;1256135;23;1936;-70
2022/10/09 10:35:08;;;;;;;;;;;;;;;16.21;61.99;101996.28;1256195;23;609;-71
2022/10/09 10:35:58;;;;;;;;;;;;;;;16.22;62.24;101998.84;1256417;23;594;-71
2022/10/09 10:36:49;;;;;;;;;;;;;;;16.22;62.60;101998.00;1256441;23;551;-71
2022/10/09 10:37:39;;;;;;;;;;;;;;;16.23;62.38;101989.81;1256376;23;653;-71
2022/10/09 10:38:30;;;;;;;;;;;;;;;16.22;62.34;101998.84;1256193;23;680;-71
2022/10/09 10:39:20;;;;;;;;;;;;;;;16.20;63.06;101990.03;1256284;23;598;-71
2022/10/09 10:40:11;;;;;;;;;;;;;;;16.18;61.94;101991.97;1256177;23;772;-69
2022/10/09 10:41:01;;;;;;;;;;;;;;;16.20;62.83;101990.03;1256203;23;625;-69
2022/10/09 10:41:51;;;;;;;;;;;;;;;16.23;62.26;101997.03;1255576;23;645;-70
2022/10/09 10:42:42;;;;;;;;;;;;;;;16.20;61.65;101986.47;1256147;23;588;-69
2022/10/09 10:43:32;;;;;;;;;;;;;;;16.23;62.29;101987.13;1256309;23;633;-70
2022/10/09 10:44:23;;;;;;;;;;;;;;;16.24;62.94;101986.16;1256043;23;672;-70
2022/10/09 10:45:13;;;;;;;;;;;;;;;16.26;62.34;101989.63;1256320;23;641;-69
2022/10/09 10:46:03;;;;;;;;;;;;;;;16.26;61.90;101986.91;1253746;23;618;-70
2022/10/09 10:46:54;;;;;;;;;;;;;;;16.27;62.19;101985.97;1247658;23;650;-69
2022/10/09 10:47:44;;;;;;;;;;;;;;;16.19;61.33;101982.94;1249089;23;641;-70
2022/10/09 10:48:35;;;;;;;;;;;;;;;16.22;62.53;101989.94;1254406;23;649;-70
2022/10/09 10:49:25;;;;;;;;;;;;;;;16.26;62.93;101984.22;1256146;23;708;-70
2022/10/09 10:50:16;;;;;;;;;;;;;;;16.27;62.04;101977.03;1256099;23;691;-70
2022/10/09 10:51:06;;;;;;;;;;;;;;;16.26;62.65;101978.84;1256195;23;856;-70
2022/10/09 10:51:57;;;;;;;;;;;;;;;16.27;62.04;101982.41;1256168;23;668;-70
2022/10/09 10:52:47;;;;;;;;;;;;;;;16.28;61.93;101978.75;1253471;23;668;-70
2022/10/09 10:53:37;;;;;;;;;;;;;;;16.30;62.48;101974.13;1253733;23;681;-70
2022/10/09 10:54:28;;;;;;;;;;;;;;;16.31;62.31;101979.38;1253749;23;1941;-70
2022/10/09 10:55:18;;;;;;;;;;;;;;;16.33;62.01;101980.13;1256285;23;626;-70
2022/10/09 10:56:09;;;;;;;;;;;;;;;16.37;61.85;101971.84;1255562;23;625;-70
2022/10/09 10:56:59;;;;;;;;;;;;;;;16.35;61.66;101971.06;1255358;23;645;-70
2022/10/09 10:57:50;;;;;;;;;;;;;;;16.37;61.81;101974.53;1253743;23;621;-70
2022/10/09 10:58:40;;;;;;;;;;;;;;;16.35;62.15;101963.88;1255350;23;656;-70
2022/10/09 10:59:31;;;;;;;;;;;;;;;16.36;61.33;101973.66;1256297;23;603;-71
2022/10/09 11:00:21;;;;;;;;;;;;;;;16.35;62.21;101968.38;1255911;23;1096;-71
2022/10/09 11:01:11;;;;;;;;;;;;;;;16.33;60.93;101963.97;1256182;23;668;-70
2022/10/09 11:02:02;;;;;;;;;;;;;;;16.34;60.98;101970.22;1256108;23;622;-70
2022/10/09 11:02:52;;;;;;;;;;;;;;;16.37;61.77;101961.06;1256214;23;641;-71
2022/10/09 11:03:43;;;;;;;;;;;;;;;16.41;62.00;101965.28;1253849;23;681;-70
2022/10/09 11:04:33;;;;;;;;;;;;;;;16.43;62.13;101963.34;1256222;23;629;-70
2022/10/09 11:05:26;;;;;;;;;;;;;;;16.42;61.72;101964.31;1256160;23;641;-71
2022/10/09 11:06:16;;;;;;;;;;;;;;;16.45;61.84;101966.78;1255296;23;622;-71
2022/10/09 11:07:07;;;;;;;;;;;;;;;16.46;61.70;101953.22;1256230;23;684;-71
2022/10/09 11:07:57;;;;;;;;;;;;;;;16.44;61.65;101957.00;1247651;23;661;-70
2022/10/09 11:08:47;;;;;;;;;;;;;;;16.43;62.04;101956.13;1248179;23;664;-70
2022/10/09 11:09:38;;;;;;;;;;;;;;;16.42;60.49;101953.53;1254437;23;603;-71
2022/10/09 11:10:28;;;;;;;;;;;;;;;16.41;60.85;101950.00;1253593;23;665;-70
2022/10/09 11:11:19;;;;;;;;;;;;;;;16.40;61.22;101950.09;1256137;23;645;-70
2022/10/09 11:12:09;;;;;;;;;;;;;;;16.44;61.55;101951.59;1256305;23;597;-71
2022/10/09 11:13:00;;;;;;;;;;;;;;;16.43;60.76;101955.25;1256119;23;661;-71
2022/10/09 11:13:50;;;;;;;;;;;;;;;16.44;60.54;101951.59;1256035;23;681;-72
2022/10/09 11:14:40;;;;;;;;;;;;;;;16.47;61.60;101944.19;1253426;23;1936;-71
2022/10/09 11:15:36;;;;;;;;;;;;;;;16.53;61.48;101943.72;1253834;23;661;-71
2022/10/09 11:16:26;;;;;;;;;;;;;;;16.55;61.80;101941.78;1255341;23;621;-71
2022/10/09 11:17:17;;;;;;;;;;;;;;;16.57;61.31;101934.47;1256161;23;617;-70
2022/10/09 11:18:07;;;;;;;;;;;;;;;16.58;61.42;101940.69;1256002;23;625;-71
2022/10/09 11:18:57;;;;;;;;;;;;;;;16.58;61.40;101938.00;1256216;23;617;-71
2022/10/09 11:19:48;;;;;;;;;;;;;;;16.59;61.41;101935.22;1253909;23;645;-71
2022/10/09 11:20:38;;;;;;;;;;;;;;;16.63;61.58;101939.44;1247286;23;669;-71
2022/10/09 11:21:29;;;;;;;;;;;;;;;16.63;61.28;101938.56;1249036;23;755;-71
2022/10/09 11:22:19;;;;;;;;;;;;;;;16.65;61.01;101936.63;1255134;23;626;-71
2022/10/09 11:23:10;;;;;;;;;;;;;;;16.64;61.33;101934.91;1256147;23;584;-71
2022/10/09 11:24:00;;;;;;;;;;;;;;;16.64;61.44;101926.84;1256043;23;637;-71
2022/10/09 11:24:50;;;;;;;;;;;;;;;16.63;61.61;101934.06;1253570;23;626;-71
2022/10/09 11:25:41;;;;;;;;;;;;;;;16.67;61.56;101929.28;1247487;23;677;-71
2022/10/09 11:26:31;;;;;;;;;;;;;;;16.65;60.93;101929.41;1248937;23;661;-70
2022/10/09 11:27:22;;;;;;;;;;;;;;;16.67;61.58;101922.06;1255084;23;677;-70
2022/10/09 11:28:12;;;;;;;;;;;;;;;16.69;60.66;101926.47;1255292;23;668;-70
2022/10/09 11:29:03;;;;;;;;;;;;;;;16.70;61.45;101920.97;1256227;23;672;-70
2022/10/09 11:29:53;;;;;;;;;;;;;;;16.73;61.03;101922.59;1256109;23;621;-71
2022/10/09 11:30:43;;;;;;;;;;;;;;;16.74;61.45;101916.25;1247508;23;666;-71
2022/10/09 11:31:34;;;;;;;;;;;;;;;16.74;61.42;101914.41;1243253;23;701;-71
2022/10/09 11:32:24;;;;;;;;;;;;;;;16.76;61.47;101911.59;1243875;23;626;-71
2022/10/09 11:33:15;;;;;;;;;;;;;;;16.79;60.72;101916.78;1246656;23;811;-70
2022/10/09 11:34:05;;;;;;;;;;;;;;;16.79;61.19;101919.47;1255304;23;633;-70
2022/10/09 11:34:55;;;;;;;;;;;;;;;16.79;60.76;101912.25;1256138;23;798;-70
2022/10/09 11:35:46;;;;;;;;;;;;;;;16.80;61.40;101903.19;1247488;23;693;-70
2022/10/09 11:36:36;;;;;;;;;;;;;;;16.80;60.75;101908.59;1249015;23;697;-72
2022/10/09 11:37:27;;;;;;;;;;;;;;;16.79;59.55;101906.88;1255135;23;665;-70
2022/10/09 11:38:17;;;;;;;;;;;;;;;16.80;60.53;101908.59;1253561;23;653;-69
2022/10/09 11:39:08;;;;;;;;;;;;;;;16.84;60.41;101904.66;1256057;23;649;-70
2022/10/09 11:39:58;;;;;;;;;;;;;;;16.86;60.13;101902.72;1255619;23;664;-70
2022/10/09 11:40:49;;;;;;;;;;;;;;;16.86;60.80;101891.94;1247379;23;650;-70
2022/10/09 11:41:39;;;;;;;;;;;;;;;16.88;59.94;101900.78;1249082;23;657;-70
2022/10/09 11:42:29;;;;;;;;;;;;;;;16.90;60.68;101893.44;1255269;23;658;-70
2022/10/09 11:43:20;;;;;;;;;;;;;;;16.92;60.81;101891.50;1253772;23;658;-70
2022/10/09 11:44:10;;;;;;;;;;;;;;;16.95;59.92;101896.66;1256191;23;621;-70
2022/10/09 11:45:01;;;;;;;;;;;;;;;16.97;60.48;101893.84;1256144;23;751;-71
2022/10/09 11:45:51;;;;;;;;;;;;;;;16.99;60.29;101886.53;1256170;23;693;-71
2022/10/09 11:46:41;;;;;;;;;;;;;;;17.00;59.47;101888.25;1253801;23;614;-70
2022/10/09 11:47:32;;;;;;;;;;;;;;;16.99;60.51;101890.09;1256113;23;633;-70
2022/10/09 11:48:22;;;;;;;;;;;;;;;16.99;59.92;101886.53;1256234;23;677;-71
2022/10/09 11:49:13;;;;;;;;;;;;;;;17.00;59.87;101889.09;1253784;23;658;-71
2022/10/09 11:50:03;;;;;;;;;;;;;;;17.02;60.37;101884.44;1256401;23;642;-71
2022/10/09 11:50:54;;;;;;;;;;;;;;;17.02;60.29;101881.75;1256179;23;629;-70
2022/10/09 11:51:44;;;;;;;;;;;;;;;17.05;60.45;101891.44;1247559;23;701;-70
2022/10/09 11:52:34;;;;;;;;;;;;;;;17.06;58.64;101882.38;1249039;23;656;-70
2022/10/09 11:53:25;;;;;;;;;;;;;;;17.06;58.63;101884.22;1255040;23;661;-70
2022/10/09 11:54:15;;;;;;;;;;;;;;;17.07;59.46;101873.31;1255510;23;669;-70
2022/10/09 11:55:06;;;;;;;;;;;;;;;17.09;58.37;101870.50;1256173;23;628;-71
2022/10/09 11:55:56;;;;;;;;;;;;;;;17.11;59.66;101871.25;1253863;23;650;-70
2022/10/09 11:56:46;;;;;;;;;;;;;;;17.12;59.38;101871.16;1253634;23;654;-70
2022/10/09 11:57:37;;;;;;;;;;;;;;;17.13;59.37;101870.19;1255893;23;692;-72
2022/10/09 11:58:27;;;;;;;;;;;;;;;17.14;58.98;101865.66;1253373;23;630;-72
2022/10/09 11:59:18;;;;;;;;;;;;;;;17.10;59.04;101861.47;1253743;23;697;-71
2022/10/09 12:00:08;;;;;;;;;;;;;;;17.11;58.94;101861.34;1256141;23;606;-71
2022/10/09 12:00:59;;;;;;;;;;;;;;;17.08;59.10;101858.88;1256020;23;613;-71
2022/10/09 12:01:49;;;;;;;;;;;;;;;17.08;59.62;101860.72;1256047;23;637;-71
2022/10/09 12:02:39;;;;;;;;;;;;;;;17.12;58.96;101854.13;1256030;23;645;-70
2022/10/09 12:03:32;;;;;;;;;;;;;;;17.15;58.79;101854.75;1256011;23;641;-71
2022/10/09 12:04:22;;;;;;;;;;;;;;;17.14;59.38;101852.19;1255204;23;613;-71
2022/10/09 12:05:13;;;;;;;;;;;;;;;17.17;59.72;101851.94;1255996;23;640;-70
2022/10/09 12:06:03;;;;;;;;;;;;;;;17.22;59.72;101847.03;1256061;23;619;-71
2022/10/09 12:06:54;;;;;;;;;;;;;;;17.26;59.20;101841.31;1253599;23;611;-70
2022/10/09 12:07:44;;;;;;;;;;;;;;;17.27;59.04;101842.16;1255926;23;524;-71
2022/10/09 12:08:34;;;;;;;;;;;;;;;17.26;59.16;101841.31;1255966;23;747;-70
2022/10/09 12:09:25;;;;;;;;;;;;;;;17.25;58.87;101841.44;1255960;23;633;-70
2022/10/09 12:10:15;;;;;;;;;;;;;;;17.24;59.22;101831.63;1256058;23;650;-71
2022/10/09 12:11:06;;;;;;;;;;;;;;;17.26;59.32;101832.38;1256024;23;722;-71
2022/10/09 12:11:58;;;;;;;;;;;;;;;17.28;59.10;101833.13;1256058;23;633;-70
2022/10/09 12:12:48;;;;;;;;;;;;;;;17.29;58.33;101826.75;1255336;23;648;-70
2022/10/09 12:13:39;;;;;;;;;;;;;;;17.30;58.67;101826.63;1253506;23;649;-70
2022/10/09 12:14:30;;;;;;;;;;;;;;;17.30;59.22;101832.03;1247338;23;1909;-70
2022/10/09 12:15:20;;;;;;;;;;;;;;;17.31;59.52;101822.97;1249026;23;618;-70
2022/10/09 12:16:11;;;;;;;;;;;;;;;17.31;59.94;101819.41;1255026;23;642;-72
2022/10/09 12:17:01;;;;;;;;;;;;;;;17.33;59.50;101823.72;1255988;23;649;-71
2022/10/09 12:17:51;;;;;;;;;;;;;;;17.34;58.98;101821.88;1256062;23;609;-71
2022/10/09 12:18:42;;;;;;;;;;;;;;;17.37;59.31;101826.16;1256004;23;619;-71
2022/10/09 12:19:32;;;;;;;;;;;;;;;17.37;59.26;101816.25;1253444;23;720;-71
2022/10/09 12:20:23;;;;;;;;;;;;;;;17.36;59.85;101819.91;1256009;23;714;-71
2022/10/09 12:21:14;;;;;;;;;;;;;;;17.37;59.71;101808.16;1255561;23;665;-71
2022/10/09 12:22:04;;;;;;;;;;;;;;;17.40;58.72;101813.28;1254109;23;615;-71
2022/10/09 12:22:55;;;;;;;;;;;;;;;17.44;59.00;101811.22;1253899;23;539;-71
2022/10/09 12:23:45;;;;;;;;;;;;;;;17.45;58.83;101813.78;1255657;23;719;-71
2022/10/09 12:24:36;;;;;;;;;;;;;;;17.45;59.00;101802.16;1256296;23;711;-70
2022/10/09 12:25:26;;;;;;;;;;;;;;;17.45;58.88;101813.78;1253779;23;603;-71
2022/10/09 12:26:17;;;;;;;;;;;;;;;17.46;59.32;101803.88;1256393;23;673;-71
2022/10/09 12:27:07;;;;;;;;;;;;;;;17.47;59.48;101806.44;1256233;23;633;-71
2022/10/09 12:27:57;;;;;;;;;;;;;;;17.49;58.53;101803.63;1253867;23;589;-70
2022/10/09 12:28:48;;;;;;;;;;;;;;;17.49;58.98;101801.81;1256305;23;630;-71
2022/10/09 12:29:39;;;;;;;;;;;;;;;17.50;59.40;101795.44;1256388;23;681;-71
2022/10/09 12:30:29;;;;;;;;;;;;;;;17.56;58.75;101794.94;1255576;23;700;-70
2022/10/09 12:31:20;;;;;;;;;;;;;;;17.57;59.03;101795.78;1253914;23;598;-70
2022/10/09 12:32:10;;;;;;;;;;;;;;;17.57;58.63;101787.69;1256460;23;661;-70
2022/10/09 12:33:00;;;;;;;;;;;;;;;17.59;58.80;101793.84;1256417;23;657;-71
2022/10/09 12:33:51;;;;;;;;;;;;;;;17.61;58.70;101790.03;1256364;23;645;-70
2022/10/09 12:34:41;;;;;;;;;;;;;;;17.61;58.43;101787.34;1253595;23;1924;-71
2022/10/09 12:35:32;;;;;;;;;;;;;;;17.64;57.98;101776.34;1256332;23;729;-70
2022/10/09 12:36:22;;;;;;;;;;;;;;;17.64;58.72;101776.34;1256494;23;669;-71
2022/10/09 12:37:13;;;;;;;;;;;;;;;17.66;58.78;101787.88;1247684;23;654;-71
2022/10/09 12:38:03;;;;;;;;;;;;;;;17.66;57.89;101790.56;1248708;23;622;-71
2022/10/09 12:38:54;;;;;;;;;;;;;;;17.69;58.41;101782.25;1254591;23;645;-70
2022/10/09 12:39:44;;;;;;;;;;;;;;;17.71;58.48;101781.28;1254165;23;677;-70
2022/10/09 12:40:34;;;;;;;;;;;;;;;17.68;58.52;101776.97;1247593;23;646;-70
2022/10/09 12:41:25;;;;;;;;;;;;;;;17.68;58.48;101777.84;1249211;23;680;-70
2022/10/09 12:42:15;;;;;;;;;;;;;;;17.73;58.06;101776.63;1254491;23;654;-70
2022/10/09 12:43:06;;;;;;;;;;;;;;;17.74;57.81;101781.00;1255659;23;661;-70
2022/10/09 12:43:56;;;;;;;;;;;;;;;17.74;57.98;101770.22;1253869;23;646;-71
2022/10/09 12:44:47;;;;;;;;;;;;;;;17.76;57.83;101771.81;1256279;23;621;-71
2022/10/09 12:45:37;;;;;;;;;;;;;;;17.79;58.10;101773.41;1256308;23;641;-72
2022/10/09 12:46:28;;;;;;;;;;;;;;;17.81;58.55;101768.75;1256352;23;621;-71
2022/10/09 12:47:18;;;;;;;;;;;;;;;17.83;57.97;101769.50;1253996;23;649;-71
2022/10/09 12:48:09;;;;;;;;;;;;;;;17.82;57.73;101770.47;1253808;23;673;-71
2022/10/09 12:48:59;;;;;;;;;;;;;;;17.85;58.26;101773.78;1247695;23;634;-71
2022/10/09 12:49:49;;;;;;;;;;;;;;;17.84;57.36;101768.50;1249303;23;610;-71
2022/10/09 12:50:40;;;;;;;;;;;;;;;17.85;57.95;101762.13;1254573;23;677;-72
2022/10/09 12:51:30;;;;;;;;;;;;;;;17.84;57.77;101760.41;1256382;23;625;-72
2022/10/09 12:52:21;;;;;;;;;;;;;;;17.87;58.51;101766.44;1255722;23;657;-70
2022/10/09 12:53:12;;;;;;;;;;;;;;;17.90;57.88;101762.63;1254260;23;799;-72
2022/10/09 12:54:02;;;;;;;;;;;;;;;17.90;58.04;101766.19;1255517;23;766;-72
2022/10/09 12:54:53;;;;;;;;;;;;;;;17.95;57.41;101758.56;1256405;23;641;-71
2022/10/09 12:55:43;;;;;;;;;;;;;;;17.93;58.23;101751.56;1256278;23;681;-72
2022/10/09 12:56:34;;;;;;;;;;;;;;;17.93;57.84;101746.19;1253733;23;609;-72
2022/10/09 12:57:26;;;;;;;;;;;;;;;17.93;58.29;101743.47;1255675;23;657;-72
2022/10/09 12:58:16;;;;;;;;;;;;;;;17.92;57.50;101745.31;1253347;23;630;-71
2022/10/09 12:59:06;;;;;;;;;;;;;;;17.95;57.72;101747.75;1256470;23;696;-71
2022/10/09 12:59:57;;;;;;;;;;;;;;;17.97;57.92;101748.50;1256241;23;680;-70
2022/10/09 13:00:47;;;;;;;;;;;;;;;18.03;57.53;101737.22;1256363;23;617;-71
2022/10/09 13:01:38;;;;;;;;;;;;;;;18.06;57.68;101738.81;1256236;23;677;-70
2022/10/09 13:02:30;;;;;;;;;;;;;;;18.04;58.00;101736.25;1255450;23;665;-71
2022/10/09 13:03:22;;;;;;;;;;;;;;;18.08;57.31;101742.25;1255522;23;618;-71
2022/10/09 13:04:12;;;;;;;;;;;;;;;18.06;57.37;101728.03;1255583;23;662;-71
2022/10/09 13:05:02;;;;;;;;;;;;;;;18.07;57.29;101732.44;1253706;23;697;-70
2022/10/09 13:05:53;;;;;;;;;;;;;;;18.09;56.67;101727.78;1256342;23;660;-70
2022/10/09 13:06:43;;;;;;;;;;;;;;;18.12;58.04;101727.50;1255918;23;633;-70
2022/10/09 13:07:34;;;;;;;;;;;;;;;18.15;57.50;101727.25;1256240;23;592;-70
2022/10/09 13:08:24;;;;;;;;;;;;;;;18.16;57.90;101723.56;1256308;23;680;-71
2022/10/09 13:09:14;;;;;;;;;;;;;;;18.19;57.08;101725.16;1256438;23;661;-71
2022/10/09 13:10:05;;;;;;;;;;;;;;;18.22;57.81;101725.78;1256353;23;1134;-72
2022/10/09 13:10:55;;;;;;;;;;;;;;;18.26;57.18;101721.84;1249200;23;664;-72
2022/10/09 13:11:46;;;;;;;;;;;;;;;18.26;56.37;101719.16;1249286;23;625;-71
2022/10/09 13:12:36;;;;;;;;;;;;;;;18.30;57.60;101719.72;1255292;23;669;-71
2022/10/09 13:13:27;;;;;;;;;;;;;;;18.28;57.58;101710.88;1256384;23;637;-72
2022/10/09 13:14:17;;;;;;;;;;;;;;;18.28;57.21;101716.28;1256269;23;641;-72
2022/10/09 13:15:07;;;;;;;;;;;;;;;18.27;57.64;101714.59;1253827;23;653;-71
2022/10/09 13:15:58;;;;;;;;;;;;;;;18.28;57.57;101717.16;1256462;23;602;-71
2022/10/09 13:16:48;;;;;;;;;;;;;;;18.27;56.80;101717.31;1256328;23;614;-71
2022/10/09 13:17:39;;;;;;;;;;;;;;;18.32;56.93;101705.13;1253933;23;693;-71
2022/10/09 13:18:29;;;;;;;;;;;;;;;18.34;56.69;101705.84;1253646;23;603;-71
2022/10/09 13:19:20;;;;;;;;;;;;;;;18.35;56.99;101696.78;1256177;23;608;-70
2022/10/09 13:20:10;;;;;;;;;;;;;;;18.39;58.25;101702.78;1255491;23;610;-70
2022/10/09 13:21:01;;;;;;;;;;;;;;;18.38;58.40;101695.66;1256367;23;621;-70
2022/10/09 13:21:51;;;;;;;;;;;;;;;18.43;58.14;101698.84;1256356;23;546;-71
2022/10/09 13:22:42;;;;;;;;;;;;;;;18.42;57.72;101701.66;1256223;23;664;-71
2022/10/09 13:23:32;;;;;;;;;;;;;;;18.40;57.21;101699.09;1254021;23;626;-71
2022/10/09 13:24:22;;;;;;;;;;;;;;;18.44;56.64;101691.59;1256356;23;614;-71
2022/10/09 13:25:13;;;;;;;;;;;;;;;18.42;57.04;101690.88;1256262;23;676;-72
2022/10/09 13:26:03;;;;;;;;;;;;;;;18.45;57.64;101686.03;1255537;23;669;-71
2022/10/09 13:26:54;;;;;;;;;;;;;;;18.47;58.11;101683.22;1256347;23;618;-70